sensor_id;sensor_type;location;lat;lon;timestamp;P1;durP1;ratioP1;P2;durP2;ratioP2
61756;SDS011;57225;61.460;24.060;2024-01-07T00:01:39;19.53;;;5.17;;
61756;SDS011;57225;61.460;24.060;2024-01-07T00:04:29;13.10;;;5.03;;
61756;SDS011;57225;61.460;24.060;2024-01-07T00:07:14;13.77;;;4.77;;
61756;SDS011;57225;61.460;24.060;2024-01-07T00:09:58;15.10;;;4.17;;
61756;SDS011;57225;61.460;24.060;2024-01-07T00:12:43;10.90;;;4.87;;
61756;SDS011;57225;61.460;24.060;2024-01-07T00:15:28;16.90;;;5.53;;
61756;SDS011;57225;61.460;24.060;2024-01-07T00:18:12;20.87;;;5.27;;
61756;SDS011;57225;61.460;24.060;2024-01-07T00:20:57;13.47;;;4.80;;
61756;SDS011;57225;61.460;24.060;2024-01-07T00:23:41;14.27;;;5.63;;
61756;SDS011;57225;61.460;24.060;2024-01-07T00:26:25;14.20;;;4.73;;
61756;SDS011;57225;61.460;24.060;2024-01-07T00:29:10;13.43;;;4.67;;
61756;SDS011;57225;61.460;24.060;2024-01-07T00:31:54;17.80;;;5.03;;
61756;SDS011;57225;61.460;24.060;2024-01-07T00:34:38;14.70;;;5.43;;
61756;SDS011;57225;61.460;24.060;2024-01-07T00:37:23;30.23;;;5.83;;
61756;SDS011;57225;61.460;24.060;2024-01-07T00:40:08;11.73;;;5.03;;
61756;SDS011;57225;61.460;24.060;2024-01-07T00:42:52;14.37;;;5.43;;
61756;SDS011;57225;61.460;24.060;2024-01-07T00:45:37;22.20;;;5.40;;
61756;SDS011;57225;61.460;24.060;2024-01-07T00:48:21;19.57;;;5.50;;
61756;SDS011;57225;61.460;24.060;2024-01-07T00:51:06;26.10;;;6.37;;
61756;SDS011;57225;61.460;24.060;2024-01-07T00:53:51;23.67;;;7.07;;
61756;SDS011;57225;61.460;24.060;2024-01-07T00:56:35;15.03;;;5.87;;
61756;SDS011;57225;61.460;24.060;2024-01-07T00:59:20;30.93;;;7.77;;
61756;SDS011;57225;61.460;24.060;2024-01-07T01:02:04;14.67;;;6.57;;
61756;SDS011;57225;61.460;24.060;2024-01-07T01:04:48;24.43;;;7.93;;
61756;SDS011;57225;61.460;24.060;2024-01-07T01:07:33;23.00;;;6.93;;
61756;SDS011;57225;61.460;24.060;2024-01-07T01:10:17;22.33;;;7.50;;
61756;SDS011;57225;61.460;24.060;2024-01-07T01:13:02;19.43;;;6.33;;
61756;SDS011;57225;61.460;24.060;2024-01-07T01:15:47;25.30;;;7.37;;
61756;SDS011;57225;61.460;24.060;2024-01-07T01:18:32;23.57;;;6.93;;
61756;SDS011;57225;61.460;24.060;2024-01-07T01:21:16;21.33;;;7.93;;
61756;SDS011;57225;61.460;24.060;2024-01-07T01:24:01;20.00;;;6.73;;
61756;SDS011;57225;61.460;24.060;2024-01-07T01:26:45;19.37;;;6.40;;
61756;SDS011;57225;61.460;24.060;2024-01-07T01:29:29;15.63;;;6.57;;
61756;SDS011;57225;61.460;24.060;2024-01-07T01:32:14;22.07;;;6.27;;
61756;SDS011;57225;61.460;24.060;2024-01-07T01:34:58;25.97;;;6.03;;
61756;SDS011;57225;61.460;24.060;2024-01-07T01:37:43;16.10;;;6.07;;
61756;SDS011;57225;61.460;24.060;2024-01-07T01:40:28;15.20;;;4.67;;
61756;SDS011;57225;61.460;24.060;2024-01-07T01:43:12;14.93;;;5.23;;
61756;SDS011;57225;61.460;24.060;2024-01-07T01:46:05;12.63;;;4.37;;
61756;SDS011;57225;61.460;24.060;2024-01-07T01:48:50;21.40;;;5.43;;
61756;SDS011;57225;61.460;24.060;2024-01-07T01:51:35;15.17;;;5.13;;
61756;SDS011;57225;61.460;24.060;2024-01-07T01:54:20;15.60;;;4.07;;
61756;SDS011;57225;61.460;24.060;2024-01-07T01:57:05;12.83;;;4.73;;
61756;SDS011;57225;61.460;24.060;2024-01-07T01:59:52;18.33;;;5.07;;
61756;SDS011;57225;61.460;24.060;2024-01-07T02:02:37;12.33;;;4.43;;
61756;SDS011;57225;61.460;24.060;2024-01-07T02:05:21;11.37;;;4.27;;
61756;SDS011;57225;61.460;24.060;2024-01-07T02:08:07;23.30;;;4.97;;
61756;SDS011;57225;61.460;24.060;2024-01-07T02:10:52;14.77;;;4.63;;
61756;SDS011;57225;61.460;24.060;2024-01-07T02:13:36;14.43;;;4.20;;
61756;SDS011;57225;61.460;24.060;2024-01-07T02:16:20;17.70;;;4.83;;
61756;SDS011;57225;61.460;24.060;2024-01-07T02:19:05;15.70;;;4.57;;
61756;SDS011;57225;61.460;24.060;2024-01-07T02:21:50;14.30;;;4.73;;
61756;SDS011;57225;61.460;24.060;2024-01-07T02:24:35;16.90;;;5.87;;
61756;SDS011;57225;61.460;24.060;2024-01-07T02:27:19;17.57;;;5.43;;
61756;SDS011;57225;61.460;24.060;2024-01-07T02:30:04;13.13;;;4.57;;
61756;SDS011;57225;61.460;24.060;2024-01-07T02:32:49;14.83;;;4.70;;
61756;SDS011;57225;61.460;24.060;2024-01-07T02:35:33;13.60;;;4.60;;
61756;SDS011;57225;61.460;24.060;2024-01-07T02:38:18;10.87;;;4.13;;
61756;SDS011;57225;61.460;24.060;2024-01-07T02:41:02;9.50;;;3.43;;
61756;SDS011;57225;61.460;24.060;2024-01-07T02:43:47;11.93;;;4.63;;
61756;SDS011;57225;61.460;24.060;2024-01-07T02:46:31;9.10;;;4.50;;
61756;SDS011;57225;61.460;24.060;2024-01-07T02:49:15;11.83;;;4.60;;
61756;SDS011;57225;61.460;24.060;2024-01-07T02:52:00;11.27;;;4.33;;
61756;SDS011;57225;61.460;24.060;2024-01-07T02:54:44;8.47;;;3.53;;
61756;SDS011;57225;61.460;24.060;2024-01-07T02:57:29;20.87;;;3.33;;
61756;SDS011;57225;61.460;24.060;2024-01-07T03:00:13;15.30;;;4.23;;
61756;SDS011;57225;61.460;24.060;2024-01-07T03:02:58;14.33;;;5.17;;
61756;SDS011;57225;61.460;24.060;2024-01-07T03:05:43;18.07;;;4.53;;
61756;SDS011;57225;61.460;24.060;2024-01-07T03:08:27;18.63;;;4.77;;
61756;SDS011;57225;61.460;24.060;2024-01-07T03:11:12;20.73;;;4.87;;
61756;SDS011;57225;61.460;24.060;2024-01-07T03:13:56;12.60;;;4.90;;
61756;SDS011;57225;61.460;24.060;2024-01-07T03:16:41;16.20;;;5.50;;
61756;SDS011;57225;61.460;24.060;2024-01-07T03:19:25;14.93;;;4.33;;
61756;SDS011;57225;61.460;24.060;2024-01-07T03:22:10;17.60;;;5.67;;
61756;SDS011;57225;61.460;24.060;2024-01-07T03:24:54;12.43;;;4.63;;
61756;SDS011;57225;61.460;24.060;2024-01-07T03:27:39;18.80;;;5.53;;
61756;SDS011;57225;61.460;24.060;2024-01-07T03:30:23;19.63;;;5.93;;
61756;SDS011;57225;61.460;24.060;2024-01-07T03:33:07;16.23;;;5.77;;
61756;SDS011;57225;61.460;24.060;2024-01-07T03:35:52;26.83;;;5.53;;
61756;SDS011;57225;61.460;24.060;2024-01-07T03:38:37;26.23;;;5.23;;
61756;SDS011;57225;61.460;24.060;2024-01-07T03:41:22;16.87;;;4.93;;
61756;SDS011;57225;61.460;24.060;2024-01-07T03:44:07;16.63;;;5.63;;
61756;SDS011;57225;61.460;24.060;2024-01-07T03:46:51;19.90;;;6.07;;
61756;SDS011;57225;61.460;24.060;2024-01-07T03:49:36;17.50;;;5.20;;
61756;SDS011;57225;61.460;24.060;2024-01-07T03:52:21;13.43;;;5.30;;
61756;SDS011;57225;61.460;24.060;2024-01-07T03:55:06;15.37;;;5.90;;
61756;SDS011;57225;61.460;24.060;2024-01-07T03:57:50;21.83;;;5.50;;
61756;SDS011;57225;61.460;24.060;2024-01-07T04:00:35;15.77;;;5.63;;
61756;SDS011;57225;61.460;24.060;2024-01-07T04:03:20;29.03;;;6.03;;
61756;SDS011;57225;61.460;24.060;2024-01-07T04:06:06;21.57;;;7.77;;
61756;SDS011;57225;61.460;24.060;2024-01-07T04:08:51;16.23;;;5.43;;
61756;SDS011;57225;61.460;24.060;2024-01-07T04:11:39;35.30;;;6.70;;
61756;SDS011;57225;61.460;24.060;2024-01-07T04:14:24;28.80;;;6.00;;
61756;SDS011;57225;61.460;24.060;2024-01-07T04:17:11;35.10;;;5.97;;
61756;SDS011;57225;61.460;24.060;2024-01-07T04:19:55;16.07;;;5.50;;
61756;SDS011;57225;61.460;24.060;2024-01-07T04:22:40;13.23;;;5.83;;
61756;SDS011;57225;61.460;24.060;2024-01-07T04:25:24;45.77;;;7.33;;
61756;SDS011;57225;61.460;24.060;2024-01-07T04:28:09;23.27;;;7.53;;
61756;SDS011;57225;61.460;24.060;2024-01-07T04:30:54;19.67;;;6.67;;
61756;SDS011;57225;61.460;24.060;2024-01-07T04:33:38;21.83;;;6.10;;
61756;SDS011;57225;61.460;24.060;2024-01-07T04:36:22;17.17;;;5.87;;
61756;SDS011;57225;61.460;24.060;2024-01-07T04:39:07;22.80;;;7.10;;
61756;SDS011;57225;61.460;24.060;2024-01-07T04:41:53;24.50;;;8.43;;
61756;SDS011;57225;61.460;24.060;2024-01-07T04:44:38;14.63;;;6.63;;
61756;SDS011;57225;61.460;24.060;2024-01-07T04:47:29;26.07;;;5.53;;
61756;SDS011;57225;61.460;24.060;2024-01-07T04:50:14;38.93;;;6.63;;
61756;SDS011;57225;61.460;24.060;2024-01-07T04:53:03;24.40;;;6.73;;
61756;SDS011;57225;61.460;24.060;2024-01-07T04:55:47;26.43;;;7.40;;
61756;SDS011;57225;61.460;24.060;2024-01-07T04:58:32;19.30;;;6.43;;
61756;SDS011;57225;61.460;24.060;2024-01-07T05:01:16;24.67;;;6.60;;
61756;SDS011;57225;61.460;24.060;2024-01-07T05:04:04;27.13;;;7.73;;
61756;SDS011;57225;61.460;24.060;2024-01-07T05:06:48;15.13;;;5.88;;
61756;SDS011;57225;61.460;24.060;2024-01-07T05:09:33;15.63;;;5.70;;
61756;SDS011;57225;61.460;24.060;2024-01-07T05:12:21;21.67;;;6.83;;
61756;SDS011;57225;61.460;24.060;2024-01-07T05:15:06;22.20;;;7.30;;
61756;SDS011;57225;61.460;24.060;2024-01-07T05:17:51;17.30;;;7.47;;
61756;SDS011;57225;61.460;24.060;2024-01-07T05:20:35;23.13;;;7.73;;
61756;SDS011;57225;61.460;24.060;2024-01-07T05:23:20;23.37;;;6.60;;
61756;SDS011;57225;61.460;24.060;2024-01-07T05:26:04;21.20;;;6.93;;
61756;SDS011;57225;61.460;24.060;2024-01-07T05:28:49;30.50;;;7.87;;
61756;SDS011;57225;61.460;24.060;2024-01-07T05:31:34;25.10;;;7.43;;
61756;SDS011;57225;61.460;24.060;2024-01-07T05:34:18;33.23;;;8.20;;
61756;SDS011;57225;61.460;24.060;2024-01-07T05:37:03;62.83;;;16.10;;
61756;SDS011;57225;61.460;24.060;2024-01-07T05:39:47;33.87;;;9.57;;
61756;SDS011;57225;61.460;24.060;2024-01-07T05:42:33;34.90;;;8.13;;
61756;SDS011;57225;61.460;24.060;2024-01-07T05:45:17;23.60;;;9.67;;
61756;SDS011;57225;61.460;24.060;2024-01-07T05:48:01;31.50;;;9.53;;
61756;SDS011;57225;61.460;24.060;2024-01-07T05:50:46;32.60;;;9.07;;
61756;SDS011;57225;61.460;24.060;2024-01-07T05:53:31;31.30;;;8.57;;
61756;SDS011;57225;61.460;24.060;2024-01-07T05:56:16;25.30;;;8.87;;
61756;SDS011;57225;61.460;24.060;2024-01-07T05:59:00;31.17;;;9.17;;
61756;SDS011;57225;61.460;24.060;2024-01-07T06:01:45;22.83;;;8.20;;
61756;SDS011;57225;61.460;24.060;2024-01-07T06:04:29;43.00;;;11.00;;
61756;SDS011;57225;61.460;24.060;2024-01-07T06:07:13;108.03;;;19.27;;
61756;SDS011;57225;61.460;24.060;2024-01-07T06:09:58;321.70;;;51.87;;
61756;SDS011;57225;61.460;24.060;2024-01-07T06:12:44;99.83;;;17.53;;
61756;SDS011;57225;61.460;24.060;2024-01-07T06:15:28;43.83;;;11.93;;
61756;SDS011;57225;61.460;24.060;2024-01-07T06:18:13;37.30;;;8.97;;
61756;SDS011;57225;61.460;24.060;2024-01-07T06:20:57;29.23;;;8.63;;
61756;SDS011;57225;61.460;24.060;2024-01-07T06:23:41;28.03;;;8.60;;
61756;SDS011;57225;61.460;24.060;2024-01-07T06:26:26;21.53;;;7.23;;
61756;SDS011;57225;61.460;24.060;2024-01-07T06:29:11;36.03;;;7.67;;
61756;SDS011;57225;61.460;24.060;2024-01-07T06:31:55;18.97;;;6.20;;
61756;SDS011;57225;61.460;24.060;2024-01-07T06:34:39;27.40;;;6.17;;
61756;SDS011;57225;61.460;24.060;2024-01-07T06:37:24;25.67;;;6.53;;
61756;SDS011;57225;61.460;24.060;2024-01-07T06:40:09;22.43;;;7.60;;
61756;SDS011;57225;61.460;24.060;2024-01-07T06:42:55;21.10;;;7.13;;
61756;SDS011;57225;61.460;24.060;2024-01-07T06:45:40;28.27;;;8.40;;
61756;SDS011;57225;61.460;24.060;2024-01-07T06:48:24;21.83;;;6.73;;
61756;SDS011;57225;61.460;24.060;2024-01-07T06:51:08;27.40;;;8.57;;
61756;SDS011;57225;61.460;24.060;2024-01-07T06:53:53;20.50;;;6.13;;
61756;SDS011;57225;61.460;24.060;2024-01-07T06:56:37;27.07;;;7.23;;
61756;SDS011;57225;61.460;24.060;2024-01-07T06:59:22;28.97;;;8.07;;
61756;SDS011;57225;61.460;24.060;2024-01-07T07:02:07;38.47;;;8.73;;
61756;SDS011;57225;61.460;24.060;2024-01-07T07:04:52;29.87;;;8.97;;
61756;SDS011;57225;61.460;24.060;2024-01-07T07:07:36;30.40;;;9.93;;
61756;SDS011;57225;61.460;24.060;2024-01-07T07:10:21;35.10;;;9.77;;
61756;SDS011;57225;61.460;24.060;2024-01-07T07:13:05;36.47;;;9.97;;
61756;SDS011;57225;61.460;24.060;2024-01-07T07:15:50;44.57;;;12.00;;
61756;SDS011;57225;61.460;24.060;2024-01-07T07:18:34;45.27;;;11.37;;
61756;SDS011;57225;61.460;24.060;2024-01-07T07:21:19;45.03;;;11.80;;
61756;SDS011;57225;61.460;24.060;2024-01-07T07:24:03;45.23;;;11.93;;
61756;SDS011;57225;61.460;24.060;2024-01-07T07:26:48;46.77;;;10.50;;
61756;SDS011;57225;61.460;24.060;2024-01-07T07:29:32;37.97;;;10.63;;
61756;SDS011;57225;61.460;24.060;2024-01-07T07:32:20;45.95;;;9.57;;
61756;SDS011;57225;61.460;24.060;2024-01-07T07:35:04;30.43;;;10.33;;
61756;SDS011;57225;61.460;24.060;2024-01-07T07:37:51;50.13;;;14.97;;
61756;SDS011;57225;61.460;24.060;2024-01-07T07:40:35;32.90;;;9.37;;
61756;SDS011;57225;61.460;24.060;2024-01-07T07:43:20;41.27;;;9.47;;
61756;SDS011;57225;61.460;24.060;2024-01-07T07:46:04;23.03;;;8.60;;
61756;SDS011;57225;61.460;24.060;2024-01-07T07:48:49;52.27;;;8.63;;
61756;SDS011;57225;61.460;24.060;2024-01-07T07:51:33;28.53;;;7.97;;
61756;SDS011;57225;61.460;24.060;2024-01-07T07:54:17;33.30;;;8.20;;
61756;SDS011;57225;61.460;24.060;2024-01-07T07:57:02;23.10;;;7.73;;
61756;SDS011;57225;61.460;24.060;2024-01-07T07:59:47;30.97;;;7.33;;
61756;SDS011;57225;61.460;24.060;2024-01-07T08:02:33;60.63;;;8.27;;
61756;SDS011;57225;61.460;24.060;2024-01-07T08:05:17;72.93;;;9.00;;
61756;SDS011;57225;61.460;24.060;2024-01-07T08:08:02;28.70;;;7.63;;
61756;SDS011;57225;61.460;24.060;2024-01-07T08:10:47;18.87;;;6.37;;
61756;SDS011;57225;61.460;24.060;2024-01-07T08:13:31;24.70;;;9.07;;
61756;SDS011;57225;61.460;24.060;2024-01-07T08:16:16;35.07;;;8.40;;
61756;SDS011;57225;61.460;24.060;2024-01-07T08:19:00;18.87;;;7.43;;
61756;SDS011;57225;61.460;24.060;2024-01-07T08:21:45;30.93;;;7.37;;
61756;SDS011;57225;61.460;24.060;2024-01-07T08:24:29;27.97;;;8.10;;
61756;SDS011;57225;61.460;24.060;2024-01-07T08:27:13;38.23;;;10.07;;
61756;SDS011;57225;61.460;24.060;2024-01-07T08:29:58;31.17;;;6.83;;
61756;SDS011;57225;61.460;24.060;2024-01-07T08:32:43;30.83;;;8.47;;
61756;SDS011;57225;61.460;24.060;2024-01-07T08:35:27;40.23;;;8.63;;
61756;SDS011;57225;61.460;24.060;2024-01-07T08:38:12;61.47;;;10.10;;
61756;SDS011;57225;61.460;24.060;2024-01-07T08:40:56;47.47;;;10.87;;
61756;SDS011;57225;61.460;24.060;2024-01-07T08:43:41;96.03;;;16.40;;
61756;SDS011;57225;61.460;24.060;2024-01-07T08:46:25;88.47;;;24.47;;
61756;SDS011;57225;61.460;24.060;2024-01-07T08:49:10;79.40;;;18.60;;
61756;SDS011;57225;61.460;24.060;2024-01-07T08:51:54;72.83;;;16.67;;
61756;SDS011;57225;61.460;24.060;2024-01-07T08:54:40;71.47;;;16.70;;
61756;SDS011;57225;61.460;24.060;2024-01-07T08:57:24;58.00;;;13.93;;
61756;SDS011;57225;61.460;24.060;2024-01-07T09:00:09;58.60;;;15.93;;
61756;SDS011;57225;61.460;24.060;2024-01-07T09:02:54;57.60;;;13.53;;
61756;SDS011;57225;61.460;24.060;2024-01-07T09:05:39;66.83;;;15.90;;
61756;SDS011;57225;61.460;24.060;2024-01-07T09:08:23;51.50;;;13.30;;
61756;SDS011;57225;61.460;24.060;2024-01-07T09:11:08;65.00;;;13.10;;
61756;SDS011;57225;61.460;24.060;2024-01-07T09:13:55;67.80;;;14.57;;
61756;SDS011;57225;61.460;24.060;2024-01-07T09:16:39;55.03;;;12.17;;
61756;SDS011;57225;61.460;24.060;2024-01-07T09:19:23;73.40;;;16.90;;
61756;SDS011;57225;61.460;24.060;2024-01-07T09:22:08;63.47;;;15.63;;
61756;SDS011;57225;61.460;24.060;2024-01-07T09:24:53;56.13;;;13.07;;
61756;SDS011;57225;61.460;24.060;2024-01-07T09:27:37;50.87;;;13.87;;
61756;SDS011;57225;61.460;24.060;2024-01-07T09:30:21;65.00;;;14.30;;
61756;SDS011;57225;61.460;24.060;2024-01-07T09:33:06;46.60;;;13.23;;
61756;SDS011;57225;61.460;24.060;2024-01-07T09:35:50;45.37;;;13.17;;
61756;SDS011;57225;61.460;24.060;2024-01-07T09:38:35;58.07;;;12.60;;
61756;SDS011;57225;61.460;24.060;2024-01-07T09:41:20;42.80;;;12.27;;
61756;SDS011;57225;61.460;24.060;2024-01-07T09:44:04;59.67;;;11.97;;
61756;SDS011;57225;61.460;24.060;2024-01-07T09:46:51;38.37;;;10.23;;
61756;SDS011;57225;61.460;24.060;2024-01-07T09:49:38;42.87;;;11.20;;
61756;SDS011;57225;61.460;24.060;2024-01-07T09:52:23;51.33;;;11.63;;
61756;SDS011;57225;61.460;24.060;2024-01-07T09:55:09;40.33;;;11.07;;
61756;SDS011;57225;61.460;24.060;2024-01-07T09:58:00;42.70;;;12.43;;
61756;SDS011;57225;61.460;24.060;2024-01-07T10:00:45;57.13;;;11.93;;
61756;SDS011;57225;61.460;24.060;2024-01-07T10:03:30;41.80;;;10.87;;
61756;SDS011;57225;61.460;24.060;2024-01-07T10:06:17;64.20;;;11.00;;
61756;SDS011;57225;61.460;24.060;2024-01-07T10:09:05;36.63;;;10.40;;
61756;SDS011;57225;61.460;24.060;2024-01-07T10:11:50;37.90;;;8.98;;
61756;SDS011;57225;61.460;24.060;2024-01-07T10:14:34;39.40;;;11.00;;
61756;SDS011;57225;61.460;24.060;2024-01-07T10:17:19;49.30;;;11.70;;
61756;SDS011;57225;61.460;24.060;2024-01-07T10:20:06;54.63;;;13.00;;
61756;SDS011;57225;61.460;24.060;2024-01-07T10:22:53;75.07;;;13.87;;
61756;SDS011;57225;61.460;24.060;2024-01-07T10:25:38;61.00;;;14.07;;
61756;SDS011;57225;61.460;24.060;2024-01-07T10:28:23;38.37;;;12.10;;
61756;SDS011;57225;61.460;24.060;2024-01-07T10:31:08;47.90;;;11.87;;
61756;SDS011;57225;61.460;24.060;2024-01-07T10:37:05;49.67;;;11.93;;
61756;SDS011;57225;61.460;24.060;2024-01-07T10:39:51;42.53;;;11.80;;
61756;SDS011;57225;61.460;24.060;2024-01-07T10:42:36;38.97;;;12.07;;
61756;SDS011;57225;61.460;24.060;2024-01-07T10:45:22;50.27;;;12.10;;
61756;SDS011;57225;61.460;24.060;2024-01-07T10:48:07;44.17;;;13.53;;
61756;SDS011;57225;61.460;24.060;2024-01-07T10:50:53;43.37;;;13.87;;
61756;SDS011;57225;61.460;24.060;2024-01-07T10:53:41;63.47;;;13.30;;
61756;SDS011;57225;61.460;24.060;2024-01-07T10:56:38;34.63;;;12.67;;
61756;SDS011;57225;61.460;24.060;2024-01-07T10:59:29;50.50;;;14.23;;
61756;SDS011;57225;61.460;24.060;2024-01-07T11:02:15;53.83;;;13.87;;
61756;SDS011;57225;61.460;24.060;2024-01-07T11:08:34;66.15;;;17.63;;
61756;SDS011;57225;61.460;24.060;2024-01-07T11:11:24;51.53;;;15.43;;
61756;SDS011;57225;61.460;24.060;2024-01-07T11:20:21;65.93;;;15.77;;
61756;SDS011;57225;61.460;24.060;2024-01-07T11:26:11;75.13;;;15.73;;
61756;SDS011;57225;61.460;24.060;2024-01-07T11:28:56;75.60;;;13.83;;
61756;SDS011;57225;61.460;24.060;2024-01-07T11:31:42;49.77;;;12.60;;
61756;SDS011;57225;61.460;24.060;2024-01-07T11:34:40;47.93;;;12.60;;
61756;SDS011;57225;61.460;24.060;2024-01-07T11:37:27;57.30;;;11.93;;
61756;SDS011;57225;61.460;24.060;2024-01-07T11:40:12;47.87;;;12.83;;
61756;SDS011;57225;61.460;24.060;2024-01-07T11:42:58;36.40;;;10.83;;
61756;SDS011;57225;61.460;24.060;2024-01-07T11:45:42;42.10;;;10.43;;
61756;SDS011;57225;61.460;24.060;2024-01-07T11:48:27;36.33;;;9.63;;
61756;SDS011;57225;61.460;24.060;2024-01-07T11:51:11;48.03;;;10.20;;
61756;SDS011;57225;61.460;24.060;2024-01-07T11:53:56;27.03;;;9.70;;
61756;SDS011;57225;61.460;24.060;2024-01-07T11:56:41;40.47;;;10.47;;
61756;SDS011;57225;61.460;24.060;2024-01-07T11:59:26;39.70;;;10.43;;
61756;SDS011;57225;61.460;24.060;2024-01-07T12:02:11;30.83;;;9.70;;
61756;SDS011;57225;61.460;24.060;2024-01-07T12:04:55;32.97;;;10.13;;
61756;SDS011;57225;61.460;24.060;2024-01-07T12:07:39;34.50;;;10.57;;
61756;SDS011;57225;61.460;24.060;2024-01-07T12:10:25;36.47;;;10.47;;
61756;SDS011;57225;61.460;24.060;2024-01-07T12:13:09;42.77;;;9.67;;
61756;SDS011;57225;61.460;24.060;2024-01-07T12:15:55;18.63;;;7.30;;
61756;SDS011;57225;61.460;24.060;2024-01-07T12:18:40;37.30;;;9.07;;
61756;SDS011;57225;61.460;24.060;2024-01-07T12:21:24;23.37;;;7.07;;
61756;SDS011;57225;61.460;24.060;2024-01-07T12:24:10;21.17;;;6.33;;
61756;SDS011;57225;61.460;24.060;2024-01-07T12:26:55;22.50;;;7.13;;
61756;SDS011;57225;61.460;24.060;2024-01-07T12:29:39;27.10;;;7.87;;
61756;SDS011;57225;61.460;24.060;2024-01-07T12:32:27;42.47;;;7.83;;
61756;SDS011;57225;61.460;24.060;2024-01-07T12:35:12;25.40;;;6.20;;
61756;SDS011;57225;61.460;24.060;2024-01-07T12:37:56;24.57;;;6.47;;
61756;SDS011;57225;61.460;24.060;2024-01-07T12:40:43;23.07;;;7.67;;
61756;SDS011;57225;61.460;24.060;2024-01-07T12:43:27;19.13;;;7.33;;
61756;SDS011;57225;61.460;24.060;2024-01-07T12:46:12;19.90;;;5.90;;
61756;SDS011;57225;61.460;24.060;2024-01-07T12:48:57;32.47;;;7.20;;
61756;SDS011;57225;61.460;24.060;2024-01-07T12:51:41;21.97;;;6.43;;
61756;SDS011;57225;61.460;24.060;2024-01-07T12:54:26;22.23;;;7.07;;
61756;SDS011;57225;61.460;24.060;2024-01-07T12:57:10;32.93;;;7.00;;
61756;SDS011;57225;61.460;24.060;2024-01-07T12:59:54;28.67;;;7.67;;
61756;SDS011;57225;61.460;24.060;2024-01-07T13:02:39;19.03;;;7.07;;
61756;SDS011;57225;61.460;24.060;2024-01-07T13:05:24;27.23;;;7.43;;
61756;SDS011;57225;61.460;24.060;2024-01-07T13:08:09;35.80;;;7.73;;
61756;SDS011;57225;61.460;24.060;2024-01-07T13:10:53;27.27;;;6.73;;
61756;SDS011;57225;61.460;24.060;2024-01-07T13:13:38;19.33;;;6.40;;
61756;SDS011;57225;61.460;24.060;2024-01-07T13:16:23;19.10;;;6.23;;
61756;SDS011;57225;61.460;24.060;2024-01-07T13:19:09;27.87;;;7.03;;
61756;SDS011;57225;61.460;24.060;2024-01-07T13:21:54;19.70;;;6.90;;
61756;SDS011;57225;61.460;24.060;2024-01-07T13:24:41;23.53;;;7.87;;
61756;SDS011;57225;61.460;24.060;2024-01-07T13:27:26;30.93;;;8.13;;
61756;SDS011;57225;61.460;24.060;2024-01-07T13:30:10;36.27;;;7.13;;
61756;SDS011;57225;61.460;24.060;2024-01-07T13:32:55;25.60;;;7.47;;
61756;SDS011;57225;61.460;24.060;2024-01-07T13:35:43;26.55;;;7.50;;
61756;SDS011;57225;61.460;24.060;2024-01-07T13:38:27;33.73;;;7.93;;
61756;SDS011;57225;61.460;24.060;2024-01-07T13:41:12;28.40;;;7.83;;
61756;SDS011;57225;61.460;24.060;2024-01-07T13:43:58;46.20;;;6.90;;
61756;SDS011;57225;61.460;24.060;2024-01-07T13:46:43;25.93;;;7.20;;
61756;SDS011;57225;61.460;24.060;2024-01-07T13:49:31;31.23;;;8.20;;
61756;SDS011;57225;61.460;24.060;2024-01-07T13:52:16;36.97;;;10.30;;
61756;SDS011;57225;61.460;24.060;2024-01-07T13:55:01;43.77;;;8.97;;
61756;SDS011;57225;61.460;24.060;2024-01-07T13:57:45;49.83;;;8.13;;
61756;SDS011;57225;61.460;24.060;2024-01-07T14:00:30;39.87;;;9.53;;
61756;SDS011;57225;61.460;24.060;2024-01-07T14:03:15;56.03;;;11.90;;
61756;SDS011;57225;61.460;24.060;2024-01-07T14:06:00;63.73;;;11.93;;
61756;SDS011;57225;61.460;24.060;2024-01-07T14:08:45;71.03;;;16.03;;
61756;SDS011;57225;61.460;24.060;2024-01-07T14:11:29;52.90;;;14.77;;
61756;SDS011;57225;61.460;24.060;2024-01-07T14:14:14;96.20;;;18.80;;
61756;SDS011;57225;61.460;24.060;2024-01-07T14:16:58;91.03;;;19.33;;
61756;SDS011;57225;61.460;24.060;2024-01-07T14:19:42;82.13;;;17.13;;
61756;SDS011;57225;61.460;24.060;2024-01-07T14:22:30;62.05;;;15.00;;
61756;SDS011;57225;61.460;24.060;2024-01-07T14:25:14;42.67;;;9.47;;
61756;SDS011;57225;61.460;24.060;2024-01-07T14:27:59;76.40;;;14.33;;
61756;SDS011;57225;61.460;24.060;2024-01-07T14:30:43;74.43;;;15.67;;
61756;SDS011;57225;61.460;24.060;2024-01-07T14:33:28;58.70;;;13.50;;
61756;SDS011;57225;61.460;24.060;2024-01-07T14:36:13;53.07;;;10.27;;
61756;SDS011;57225;61.460;24.060;2024-01-07T14:39:01;35.88;;;9.15;;
61756;SDS011;57225;61.460;24.060;2024-01-07T14:41:46;58.43;;;11.13;;
61756;SDS011;57225;61.460;24.060;2024-01-07T14:44:30;46.47;;;9.77;;
61756;SDS011;57225;61.460;24.060;2024-01-07T14:47:15;36.10;;;9.17;;
61756;SDS011;57225;61.460;24.060;2024-01-07T14:49:59;36.03;;;9.37;;
61756;SDS011;57225;61.460;24.060;2024-01-07T14:52:45;38.37;;;10.43;;
61756;SDS011;57225;61.460;24.060;2024-01-07T14:55:29;58.63;;;10.40;;
61756;SDS011;57225;61.460;24.060;2024-01-07T14:58:14;31.93;;;8.87;;
61756;SDS011;57225;61.460;24.060;2024-01-07T15:00:59;29.80;;;8.43;;
61756;SDS011;57225;61.460;24.060;2024-01-07T15:03:44;26.97;;;6.93;;
61756;SDS011;57225;61.460;24.060;2024-01-07T15:06:29;27.57;;;7.13;;
61756;SDS011;57225;61.460;24.060;2024-01-07T15:09:13;24.13;;;6.63;;
61756;SDS011;57225;61.460;24.060;2024-01-07T15:11:58;25.00;;;7.10;;
61756;SDS011;57225;61.460;24.060;2024-01-07T15:14:43;30.07;;;6.83;;
61756;SDS011;57225;61.460;24.060;2024-01-07T15:17:27;34.23;;;8.40;;
61756;SDS011;57225;61.460;24.060;2024-01-07T15:20:12;22.20;;;6.87;;
61756;SDS011;57225;61.460;24.060;2024-01-07T15:22:56;35.17;;;7.77;;
61756;SDS011;57225;61.460;24.060;2024-01-07T15:25:41;31.20;;;8.10;;
61756;SDS011;57225;61.460;24.060;2024-01-07T15:28:25;29.20;;;7.90;;
61756;SDS011;57225;61.460;24.060;2024-01-07T15:31:10;25.20;;;8.47;;
61756;SDS011;57225;61.460;24.060;2024-01-07T15:33:54;25.17;;;8.17;;
61756;SDS011;57225;61.460;24.060;2024-01-07T15:36:39;38.93;;;10.67;;
61756;SDS011;57225;61.460;24.060;2024-01-07T15:39:24;47.73;;;12.33;;
61756;SDS011;57225;61.460;24.060;2024-01-07T15:42:08;36.13;;;10.33;;
61756;SDS011;57225;61.460;24.060;2024-01-07T15:44:53;30.83;;;10.93;;
61756;SDS011;57225;61.460;24.060;2024-01-07T15:47:37;38.60;;;10.93;;
61756;SDS011;57225;61.460;24.060;2024-01-07T15:50:22;30.53;;;10.40;;
61756;SDS011;57225;61.460;24.060;2024-01-07T15:53:07;43.93;;;9.93;;
61756;SDS011;57225;61.460;24.060;2024-01-07T15:55:51;29.87;;;9.37;;
61756;SDS011;57225;61.460;24.060;2024-01-07T15:58:36;39.83;;;12.97;;
61756;SDS011;57225;61.460;24.060;2024-01-07T16:01:20;34.57;;;12.17;;
61756;SDS011;57225;61.460;24.060;2024-01-07T16:04:05;39.43;;;12.27;;
61756;SDS011;57225;61.460;24.060;2024-01-07T16:06:49;32.27;;;10.90;;
61756;SDS011;57225;61.460;24.060;2024-01-07T16:09:34;34.53;;;11.60;;
61756;SDS011;57225;61.460;24.060;2024-01-07T16:12:19;34.43;;;10.30;;
61756;SDS011;57225;61.460;24.060;2024-01-07T16:15:04;52.10;;;11.53;;
61756;SDS011;57225;61.460;24.060;2024-01-07T16:17:49;34.73;;;10.93;;